Portada
METAR-TAF:

METAR-TAF

Aeropuertos :

Dax, Francia

Seyresse

latitud: 43-41N, longitud: 001-04W, altitud: 32 m

Observación

El informe se hizo hace 22 minutos, a las 02:30 UTC
Viento 1 kt del sureste
Temperatura 3°C
Humedad 100%
Presión 1028 hPa
Visibilidad: 0150 m
Nubes dispersas a una altura de 500 ft
Cielo cubierto a una altura de 4500 ft

METAR: LFBY 180230Z AUTO 13001KT 0150 // SCT005 OVC045 03/03 Q1028

Hora: 03:52 (02:52 UTC)


TAF: falta

Observaciones y pronósticos meteorológicos de más de 4000 aeropuertos (mensajes METAR y TAF).

Los puntos amarillos y rojos representan las estaciones disponibles.

Ponga el ratón en el punto deseado para ver el nombre de la estación.

Haga clic para ver las observaciones y los pronósticos meteorológicos.

Para cambiar el mapa : haga clic en los botones verdes con una cruz de color negro para hacer un zoom, en el botón verde con un guión para alejar o en las flechas verdes para mapas adyacentes.


METAR-TAF: